sensor_id;sensor_type;location;lat;lon;timestamp;temperature;humidity
29547;DHT22;40782;47.264;11.330;2023-02-01T00:00:29;1.00;99.90
29547;DHT22;40782;47.264;11.330;2023-02-01T00:02:57;1.00;99.90
29547;DHT22;40782;47.264;11.330;2023-02-01T00:05:24;1.00;99.90
29547;DHT22;40782;47.264;11.330;2023-02-01T00:07:51;1.00;99.90
29547;DHT22;40782;47.264;11.330;2023-02-01T00:10:19;1.00;99.90
29547;DHT22;40782;47.264;11.330;2023-02-01T00:12:46;1.00;99.90
29547;DHT22;40782;47.264;11.330;2023-02-01T00:15:13;1.00;99.90
29547;DHT22;40782;47.264;11.330;2023-02-01T00:17:41;0.90;99.90
29547;DHT22;40782;47.264;11.330;2023-02-01T00:20:10;0.80;99.90
29547;DHT22;40782;47.264;11.330;2023-02-01T00:22:38;0.80;99.90
29547;DHT22;40782;47.264;11.330;2023-02-01T00:25:06;0.70;99.90
29547;DHT22;40782;47.264;11.330;2023-02-01T00:27:33;0.70;99.90
29547;DHT22;40782;47.264;11.330;2023-02-01T00:30:00;0.60;99.90
29547;DHT22;40782;47.264;11.330;2023-02-01T00:32:28;0.50;99.90
29547;DHT22;40782;47.264;11.330;2023-02-01T00:34:57;0.40;99.90
29547;DHT22;40782;47.264;11.330;2023-02-01T00:37:26;0.40;99.90
29547;DHT22;40782;47.264;11.330;2023-02-01T00:39:53;0.40;99.90
29547;DHT22;40782;47.264;11.330;2023-02-01T00:42:21;0.30;99.90
29547;DHT22;40782;47.264;11.330;2023-02-01T00:44:48;0.30;99.90
29547;DHT22;40782;47.264;11.330;2023-02-01T00:47:15;0.30;99.90
29547;DHT22;40782;47.264;11.330;2023-02-01T00:49:42;0.20;99.90
29547;DHT22;40782;47.264;11.330;2023-02-01T00:52:09;0.20;99.90
29547;DHT22;40782;47.264;11.330;2023-02-01T00:54:38;0.20;99.90
29547;DHT22;40782;47.264;11.330;2023-02-01T00:57:05;0.10;99.90
29547;DHT22;40782;47.264;11.330;2023-02-01T00:59:32;0.10;99.90
29547;DHT22;40782;47.264;11.330;2023-02-01T01:01:59;0.00;99.90
29547;DHT22;40782;47.264;11.330;2023-02-01T01:04:26;0.00;99.90
29547;DHT22;40782;47.264;11.330;2023-02-01T01:06:53;-0.10;99.90
29547;DHT22;40782;47.264;11.330;2023-02-01T01:09:21;-0.10;99.90
29547;DHT22;40782;47.264;11.330;2023-02-01T01:11:49;-0.10;99.90
29547;DHT22;40782;47.264;11.330;2023-02-01T01:14:18;-0.20;99.90
29547;DHT22;40782;47.264;11.330;2023-02-01T01:16:45;-0.20;99.90
29547;DHT22;40782;47.264;11.330;2023-02-01T01:19:12;-0.30;99.90
29547;DHT22;40782;47.264;11.330;2023-02-01T01:21:40;-0.30;99.90
29547;DHT22;40782;47.264;11.330;2023-02-01T01:24:07;-0.30;99.90
29547;DHT22;40782;47.264;11.330;2023-02-01T01:26:34;-0.30;99.90
29547;DHT22;40782;47.264;11.330;2023-02-01T01:29:03;-0.40;99.90
29547;DHT22;40782;47.264;11.330;2023-02-01T01:31:31;-0.40;99.90
29547;DHT22;40782;47.264;11.330;2023-02-01T01:33:59;-0.40;99.90
29547;DHT22;40782;47.264;11.330;2023-02-01T01:36:27;-0.40;99.90
29547;DHT22;40782;47.264;11.330;2023-02-01T01:38:55;-0.50;99.90
29547;DHT22;40782;47.264;11.330;2023-02-01T01:41:23;-0.50;99.90
29547;DHT22;40782;47.264;11.330;2023-02-01T01:43:54;-0.60;99.90
29547;DHT22;40782;47.264;11.330;2023-02-01T01:46:24;-0.60;99.90
29547;DHT22;40782;47.264;11.330;2023-02-01T01:48:57;-0.60;99.90
29547;DHT22;40782;47.264;11.330;2023-02-01T01:51:27;-0.60;99.90
29547;DHT22;40782;47.264;11.330;2023-02-01T01:53:59;-0.60;99.90
29547;DHT22;40782;47.264;11.330;2023-02-01T01:56:29;-0.60;99.90
29547;DHT22;40782;47.264;11.330;2023-02-01T01:58:57;-0.70;99.90
29547;DHT22;40782;47.264;11.330;2023-02-01T02:01:26;-0.70;99.90
29547;DHT22;40782;47.264;11.330;2023-02-01T02:03:53;-0.80;1.00
29547;DHT22;40782;47.264;11.330;2023-02-01T02:06:30;-0.80;99.90
29547;DHT22;40782;47.264;11.330;2023-02-01T02:08:59;-0.80;99.90
29547;DHT22;40782;47.264;11.330;2023-02-01T02:11:26;-0.90;99.90
29547;DHT22;40782;47.264;11.330;2023-02-01T02:13:55;-0.90;99.90
29547;DHT22;40782;47.264;11.330;2023-02-01T02:16:46;-1.00;1.00
29547;DHT22;40782;47.264;11.330;2023-02-01T02:19:32;-1.00;1.00
29547;DHT22;40782;47.264;11.330;2023-02-01T02:22:14;-1.10;1.00
29547;DHT22;40782;47.264;11.330;2023-02-01T02:28:02;-1.20;1.00
29547;DHT22;40782;47.264;11.330;2023-02-01T02:31:23;-1.20;1.00
29547;DHT22;40782;47.264;11.330;2023-02-01T02:34:06;-1.30;1.00
29547;DHT22;40782;47.264;11.330;2023-02-01T02:36:44;-1.30;1.00
29547;DHT22;40782;47.264;11.330;2023-02-01T02:39:23;-1.30;1.00
29547;DHT22;40782;47.264;11.330;2023-02-01T02:41:59;-1.30;1.00
29547;DHT22;40782;47.264;11.330;2023-02-01T02:44:48;-1.30;1.00
29547;DHT22;40782;47.264;11.330;2023-02-01T02:47:38;-1.40;1.00
29547;DHT22;40782;47.264;11.330;2023-02-01T02:50:17;-1.40;1.00
29547;DHT22;40782;47.264;11.330;2023-02-01T02:53:09;-1.30;1.00
29547;DHT22;40782;47.264;11.330;2023-02-01T02:55:56;-1.40;1.00
29547;DHT22;40782;47.264;11.330;2023-02-01T02:58:42;-1.40;1.00
29547;DHT22;40782;47.264;11.330;2023-02-01T03:01:27;-1.40;1.00
29547;DHT22;40782;47.264;11.330;2023-02-01T03:04:12;-1.40;1.00
29547;DHT22;40782;47.264;11.330;2023-02-01T03:06:45;-1.40;1.00
29547;DHT22;40782;47.264;11.330;2023-02-01T03:09:16;-1.50;1.00
29547;DHT22;40782;47.264;11.330;2023-02-01T03:11:48;-1.50;1.00
29547;DHT22;40782;47.264;11.330;2023-02-01T03:14:36;-1.50;1.00
29547;DHT22;40782;47.264;11.330;2023-02-01T03:17:10;-1.50;1.00
29547;DHT22;40782;47.264;11.330;2023-02-01T03:19:42;-1.50;1.00
29547;DHT22;40782;47.264;11.330;2023-02-01T03:22:18;-1.50;1.00
29547;DHT22;40782;47.264;11.330;2023-02-01T03:24:48;-1.50;1.00
29547;DHT22;40782;47.264;11.330;2023-02-01T03:27:20;-1.50;1.00
29547;DHT22;40782;47.264;11.330;2023-02-01T03:29:52;-1.50;1.00
29547;DHT22;40782;47.264;11.330;2023-02-01T03:32:20;-1.50;1.00
29547;DHT22;40782;47.264;11.330;2023-02-01T03:34:48;-1.50;1.00
29547;DHT22;40782;47.264;11.330;2023-02-01T03:37:22;-1.60;1.00
29547;DHT22;40782;47.264;11.330;2023-02-01T03:39:53;-1.60;1.00
29547;DHT22;40782;47.264;11.330;2023-02-01T03:42:27;-1.60;1.00
29547;DHT22;40782;47.264;11.330;2023-02-01T03:45:03;-1.60;1.00
29547;DHT22;40782;47.264;11.330;2023-02-01T03:47:36;-1.60;1.00
29547;DHT22;40782;47.264;11.330;2023-02-01T03:50:06;-1.70;1.00
29547;DHT22;40782;47.264;11.330;2023-02-01T03:52:39;-1.70;1.00
29547;DHT22;40782;47.264;11.330;2023-02-01T03:55:07;-1.70;1.00
29547;DHT22;40782;47.264;11.330;2023-02-01T03:57:38;-1.70;1.00
29547;DHT22;40782;47.264;11.330;2023-02-01T04:00:14;-1.80;1.00
29547;DHT22;40782;47.264;11.330;2023-02-01T04:02:42;-1.80;1.00
29547;DHT22;40782;47.264;11.330;2023-02-01T04:05:09;-1.80;1.00
29547;DHT22;40782;47.264;11.330;2023-02-01T04:07:38;-1.90;1.00
29547;DHT22;40782;47.264;11.330;2023-02-01T04:10:06;-2.00;1.00
29547;DHT22;40782;47.264;11.330;2023-02-01T04:12:34;-2.00;1.00
29547;DHT22;40782;47.264;11.330;2023-02-01T04:15:01;-2.00;1.00
29547;DHT22;40782;47.264;11.330;2023-02-01T04:17:29;-2.00;1.00
29547;DHT22;40782;47.264;11.330;2023-02-01T04:19:57;-2.00;1.00
29547;DHT22;40782;47.264;11.330;2023-02-01T04:22:24;-2.00;1.00
29547;DHT22;40782;47.264;11.330;2023-02-01T04:24:52;-2.00;1.00
29547;DHT22;40782;47.264;11.330;2023-02-01T04:27:19;-2.00;1.00
29547;DHT22;40782;47.264;11.330;2023-02-01T04:29:47;-2.00;1.00
29547;DHT22;40782;47.264;11.330;2023-02-01T04:32:15;-2.00;1.00
29547;DHT22;40782;47.264;11.330;2023-02-01T04:34:42;-2.00;1.00
29547;DHT22;40782;47.264;11.330;2023-02-01T04:37:09;-2.00;1.00
29547;DHT22;40782;47.264;11.330;2023-02-01T04:39:37;-2.10;1.00
29547;DHT22;40782;47.264;11.330;2023-02-01T04:42:05;-2.10;1.00
29547;DHT22;40782;47.264;11.330;2023-02-01T04:44:32;-2.10;1.00
29547;DHT22;40782;47.264;11.330;2023-02-01T04:47:00;-2.20;1.00
29547;DHT22;40782;47.264;11.330;2023-02-01T04:49:27;-2.10;1.00
29547;DHT22;40782;47.264;11.330;2023-02-01T04:51:54;-2.20;1.00
29547;DHT22;40782;47.264;11.330;2023-02-01T04:54:21;-2.20;1.00
29547;DHT22;40782;47.264;11.330;2023-02-01T04:56:48;-2.30;1.00
29547;DHT22;40782;47.264;11.330;2023-02-01T04:59:17;-2.30;1.00
29547;DHT22;40782;47.264;11.330;2023-02-01T05:01:44;-2.30;1.00
29547;DHT22;40782;47.264;11.330;2023-02-01T05:04:11;-2.30;1.00
29547;DHT22;40782;47.264;11.330;2023-02-01T05:06:38;-2.30;1.00
29547;DHT22;40782;47.264;11.330;2023-02-01T05:09:05;-2.40;1.00
29547;DHT22;40782;47.264;11.330;2023-02-01T05:11:32;-2.40;1.00
29547;DHT22;40782;47.264;11.330;2023-02-01T05:14:18;-2.40;1.00
29547;DHT22;40782;47.264;11.330;2023-02-01T05:16:45;-2.40;1.00
29547;DHT22;40782;47.264;11.330;2023-02-01T05:19:13;-2.50;1.00
29547;DHT22;40782;47.264;11.330;2023-02-01T05:21:40;-2.50;1.00
29547;DHT22;40782;47.264;11.330;2023-02-01T05:24:08;-2.40;1.00
29547;DHT22;40782;47.264;11.330;2023-02-01T05:26:39;-2.40;1.00
29547;DHT22;40782;47.264;11.330;2023-02-01T05:29:07;-2.50;1.00
29547;DHT22;40782;47.264;11.330;2023-02-01T05:31:36;-2.60;1.00
29547;DHT22;40782;47.264;11.330;2023-02-01T05:34:04;-2.50;6.20
29547;DHT22;40782;47.264;11.330;2023-02-01T05:36:31;-2.50;22.70
29547;DHT22;40782;47.264;11.330;2023-02-01T05:38:58;-2.50;42.20
29547;DHT22;40782;47.264;11.330;2023-02-01T05:41:26;-2.50;26.10
29547;DHT22;40782;47.264;11.330;2023-02-01T05:43:53;-2.50;22.10
29547;DHT22;40782;47.264;11.330;2023-02-01T05:46:20;-2.60;3.90
29547;DHT22;40782;47.264;11.330;2023-02-01T05:48:48;-2.60;35.30
29547;DHT22;40782;47.264;11.330;2023-02-01T05:51:15;-2.60;60.00
29547;DHT22;40782;47.264;11.330;2023-02-01T05:53:43;-2.60;63.20
29547;DHT22;40782;47.264;11.330;2023-02-01T05:56:10;-2.70;99.10
29547;DHT22;40782;47.264;11.330;2023-02-01T05:58:37;-2.60;89.70
29547;DHT22;40782;47.264;11.330;2023-02-01T06:01:04;-2.60;96.90
29547;DHT22;40782;47.264;11.330;2023-02-01T06:03:31;-2.60;95.00
29547;DHT22;40782;47.264;11.330;2023-02-01T06:06:00;-2.60;90.00
29547;DHT22;40782;47.264;11.330;2023-02-01T06:08:28;-2.60;59.20
29547;DHT22;40782;47.264;11.330;2023-02-01T06:10:59;-2.60;61.10
29547;DHT22;40782;47.264;11.330;2023-02-01T06:13:26;-2.60;64.40
29547;DHT22;40782;47.264;11.330;2023-02-01T06:15:53;-2.60;57.60
29547;DHT22;40782;47.264;11.330;2023-02-01T06:18:21;-2.60;41.50
29547;DHT22;40782;47.264;11.330;2023-02-01T06:20:52;-2.60;38.50
29547;DHT22;40782;47.264;11.330;2023-02-01T06:23:21;-2.60;18.50
29547;DHT22;40782;47.264;11.330;2023-02-01T06:25:50;-2.60;1.00
29547;DHT22;40782;47.264;11.330;2023-02-01T06:28:17;-2.70;2.80
29547;DHT22;40782;47.264;11.330;2023-02-01T06:30:45;-2.60;1.00
29547;DHT22;40782;47.264;11.330;2023-02-01T06:33:12;-2.60;1.00
29547;DHT22;40782;47.264;11.330;2023-02-01T06:35:42;-2.60;1.00
29547;DHT22;40782;47.264;11.330;2023-02-01T06:38:10;-2.60;1.00
29547;DHT22;40782;47.264;11.330;2023-02-01T06:40:39;-2.50;1.00
29547;DHT22;40782;47.264;11.330;2023-02-01T06:43:06;-2.50;1.00
29547;DHT22;40782;47.264;11.330;2023-02-01T06:45:34;-2.50;1.00
29547;DHT22;40782;47.264;11.330;2023-02-01T06:48:01;-2.50;1.00
29547;DHT22;40782;47.264;11.330;2023-02-01T06:50:28;-2.50;1.00
29547;DHT22;40782;47.264;11.330;2023-02-01T06:52:55;-2.60;1.00
29547;DHT22;40782;47.264;11.330;2023-02-01T06:55:22;-2.60;1.00
29547;DHT22;40782;47.264;11.330;2023-02-01T06:57:54;-2.80;1.00
29547;DHT22;40782;47.264;11.330;2023-02-01T07:00:22;-2.80;37.10
29547;DHT22;40782;47.264;11.330;2023-02-01T07:02:50;-2.90;54.50
29547;DHT22;40782;47.264;11.330;2023-02-01T07:05:17;-2.90;87.20
29547;DHT22;40782;47.264;11.330;2023-02-01T07:07:45;-2.80;99.90
29547;DHT22;40782;47.264;11.330;2023-02-01T07:10:12;-2.70;99.90
29547;DHT22;40782;47.264;11.330;2023-02-01T07:12:39;-2.70;87.40
29547;DHT22;40782;47.264;11.330;2023-02-01T07:15:09;-2.60;40.80
29547;DHT22;40782;47.264;11.330;2023-02-01T07:17:36;-2.60;14.00
29547;DHT22;40782;47.264;11.330;2023-02-01T07:20:04;-2.60;1.00
29547;DHT22;40782;47.264;11.330;2023-02-01T07:22:31;-2.70;22.40
29547;DHT22;40782;47.264;11.330;2023-02-01T07:24:59;-2.70;69.10
29547;DHT22;40782;47.264;11.330;2023-02-01T07:27:26;-2.60;87.50
29547;DHT22;40782;47.264;11.330;2023-02-01T07:29:53;-2.60;80.80
29547;DHT22;40782;47.264;11.330;2023-02-01T07:32:22;-2.60;99.90
29547;DHT22;40782;47.264;11.330;2023-02-01T07:34:49;-2.50;93.30
29547;DHT22;40782;47.264;11.330;2023-02-01T07:37:16;-2.40;94.80
29547;DHT22;40782;47.264;11.330;2023-02-01T07:39:44;-2.30;59.00
29547;DHT22;40782;47.264;11.330;2023-02-01T07:42:11;-2.20;33.00
29547;DHT22;40782;47.264;11.330;2023-02-01T07:44:38;-2.10;30.60
29547;DHT22;40782;47.264;11.330;2023-02-01T07:47:05;-2.00;32.00
29547;DHT22;40782;47.264;11.330;2023-02-01T07:49:34;-1.80;15.90
29547;DHT22;40782;47.264;11.330;2023-02-01T07:52:01;-1.60;20.60
29547;DHT22;40782;47.264;11.330;2023-02-01T07:54:28;-1.40;11.70
29547;DHT22;40782;47.264;11.330;2023-02-01T07:56:55;-1.20;1.00
29547;DHT22;40782;47.264;11.330;2023-02-01T07:59:23;-1.10;1.00
29547;DHT22;40782;47.264;11.330;2023-02-01T08:01:50;-0.90;1.00
29547;DHT22;40782;47.264;11.330;2023-02-01T08:04:16;-0.80;1.00
29547;DHT22;40782;47.264;11.330;2023-02-01T08:06:45;-0.70;1.00
29547;DHT22;40782;47.264;11.330;2023-02-01T08:09:12;-0.60;1.00
29547;DHT22;40782;47.264;11.330;2023-02-01T08:11:39;-0.60;1.00
29547;DHT22;40782;47.264;11.330;2023-02-01T08:14:06;-0.40;1.00
29547;DHT22;40782;47.264;11.330;2023-02-01T08:16:34;-0.30;1.00
29547;DHT22;40782;47.264;11.330;2023-02-01T08:19:03;-0.20;1.00
29547;DHT22;40782;47.264;11.330;2023-02-01T08:21:30;-0.10;1.00
29547;DHT22;40782;47.264;11.330;2023-02-01T08:24:04;0.00;1.00
29547;DHT22;40782;47.264;11.330;2023-02-01T08:26:32;0.10;1.00
29547;DHT22;40782;47.264;11.330;2023-02-01T08:29:01;0.30;1.00
29547;DHT22;40782;47.264;11.330;2023-02-01T08:31:29;0.40;1.00
29547;DHT22;40782;47.264;11.330;2023-02-01T08:33:58;0.40;1.00
29547;DHT22;40782;47.264;11.330;2023-02-01T08:36:28;0.50;1.00
29547;DHT22;40782;47.264;11.330;2023-02-01T08:38:55;0.50;1.00
29547;DHT22;40782;47.264;11.330;2023-02-01T08:41:25;0.60;1.00
29547;DHT22;40782;47.264;11.330;2023-02-01T08:43:53;0.60;1.00
29547;DHT22;40782;47.264;11.330;2023-02-01T08:46:20;0.70;1.00
29547;DHT22;40782;47.264;11.330;2023-02-01T08:48:48;0.80;1.00
29547;DHT22;40782;47.264;11.330;2023-02-01T08:51:17;0.80;1.00
29547;DHT22;40782;47.264;11.330;2023-02-01T08:53:45;0.80;1.00
29547;DHT22;40782;47.264;11.330;2023-02-01T08:56:14;0.60;1.00
29547;DHT22;40782;47.264;11.330;2023-02-01T08:58:43;0.50;1.00
29547;DHT22;40782;47.264;11.330;2023-02-01T09:01:13;0.60;1.00
29547;DHT22;40782;47.264;11.330;2023-02-01T09:03:41;0.60;1.00
29547;DHT22;40782;47.264;11.330;2023-02-01T09:06:09;0.60;1.00
29547;DHT22;40782;47.264;11.330;2023-02-01T09:08:38;0.70;1.00
29547;DHT22;40782;47.264;11.330;2023-02-01T09:11:08;0.80;1.00
29547;DHT22;40782;47.264;11.330;2023-02-01T09:13:36;0.90;1.00
29547;DHT22;40782;47.264;11.330;2023-02-01T09:16:05;0.90;1.00
29547;DHT22;40782;47.264;11.330;2023-02-01T09:18:32;1.00;1.00
29547;DHT22;40782;47.264;11.330;2023-02-01T09:21:04;1.00;1.00
29547;DHT22;40782;47.264;11.330;2023-02-01T09:23:31;1.00;1.00
29547;DHT22;40782;47.264;11.330;2023-02-01T09:25:59;0.90;1.00
29547;DHT22;40782;47.264;11.330;2023-02-01T09:28:26;0.90;1.00
29547;DHT22;40782;47.264;11.330;2023-02-01T09:30:55;1.00;1.00
29547;DHT22;40782;47.264;11.330;2023-02-01T09:33:24;1.20;1.00
29547;DHT22;40782;47.264;11.330;2023-02-01T09:35:56;1.20;1.00
29547;DHT22;40782;47.264;11.330;2023-02-01T09:38:23;1.30;1.00
29547;DHT22;40782;47.264;11.330;2023-02-01T09:40:51;1.40;1.00
29547;DHT22;40782;47.264;11.330;2023-02-01T09:43:29;1.40;1.00
29547;DHT22;40782;47.264;11.330;2023-02-01T09:46:06;1.30;1.00
29547;DHT22;40782;47.264;11.330;2023-02-01T09:48:39;1.50;1.00
29547;DHT22;40782;47.264;11.330;2023-02-01T09:51:14;1.40;1.00
29547;DHT22;40782;47.264;11.330;2023-02-01T09:53:44;1.40;1.00
29547;DHT22;40782;47.264;11.330;2023-02-01T09:56:15;1.50;1.00
29547;DHT22;40782;47.264;11.330;2023-02-01T09:58:49;1.50;1.00
29547;DHT22;40782;47.264;11.330;2023-02-01T10:01:19;1.40;1.00
29547;DHT22;40782;47.264;11.330;2023-02-01T10:03:49;1.50;1.00
29547;DHT22;40782;47.264;11.330;2023-02-01T10:06:27;1.50;1.00
29547;DHT22;40782;47.264;11.330;2023-02-01T10:09:18;1.50;1.00
29547;DHT22;40782;47.264;11.330;2023-02-01T10:11:57;1.70;1.00
29547;DHT22;40782;47.264;11.330;2023-02-01T10:14:49;1.90;1.00
29547;DHT22;40782;47.264;11.330;2023-02-01T10:17:27;2.00;1.00
29547;DHT22;40782;47.264;11.330;2023-02-01T10:20:06;2.10;1.00
29547;DHT22;40782;47.264;11.330;2023-02-01T10:22:41;2.10;1.00
29547;DHT22;40782;47.264;11.330;2023-02-01T10:25:14;2.10;1.00
29547;DHT22;40782;47.264;11.330;2023-02-01T10:27:45;2.10;1.00
29547;DHT22;40782;47.264;11.330;2023-02-01T10:30:18;2.20;1.00
29547;DHT22;40782;47.264;11.330;2023-02-01T10:32:48;2.10;1.00
29547;DHT22;40782;47.264;11.330;2023-02-01T10:35:21;2.20;1.00
29547;DHT22;40782;47.264;11.330;2023-02-01T10:37:50;2.30;1.00
29547;DHT22;40782;47.264;11.330;2023-02-01T10:40:20;2.20;1.00
29547;DHT22;40782;47.264;11.330;2023-02-01T10:42:50;2.20;1.00
29547;DHT22;40782;47.264;11.330;2023-02-01T10:45:20;2.20;1.00
29547;DHT22;40782;47.264;11.330;2023-02-01T10:47:50;2.40;1.00
29547;DHT22;40782;47.264;11.330;2023-02-01T10:50:30;2.50;99.90
29547;DHT22;40782;47.264;11.330;2023-02-01T10:53:02;2.70;1.00
29547;DHT22;40782;47.264;11.330;2023-02-01T10:55:36;2.90;99.90
29547;DHT22;40782;47.264;11.330;2023-02-01T10:58:05;3.10;99.90
29547;DHT22;40782;47.264;11.330;2023-02-01T11:00:43;3.20;99.90
29547;DHT22;40782;47.264;11.330;2023-02-01T11:06:19;3.10;99.90
29547;DHT22;40782;47.264;11.330;2023-02-01T11:08:50;3.30;99.90
29547;DHT22;40782;47.264;11.330;2023-02-01T11:11:19;3.40;99.90
29547;DHT22;40782;47.264;11.330;2023-02-01T11:13:53;3.60;99.90
29547;DHT22;40782;47.264;11.330;2023-02-01T11:16:20;3.80;99.90
29547;DHT22;40782;47.264;11.330;2023-02-01T11:18:53;3.80;99.90
29547;DHT22;40782;47.264;11.330;2023-02-01T11:21:23;3.90;99.90
29547;DHT22;40782;47.264;11.330;2023-02-01T11:23:50;3.80;99.90
29547;DHT22;40782;47.264;11.330;2023-02-01T11:26:21;4.10;99.90
29547;DHT22;40782;47.264;11.330;2023-02-01T11:28:56;4.20;99.90
29547;DHT22;40782;47.264;11.330;2023-02-01T11:31:25;4.30;99.90
29547;DHT22;40782;47.264;11.330;2023-02-01T11:33:58;4.50;99.90
29547;DHT22;40782;47.264;11.330;2023-02-01T11:36:30;4.40;99.90
29547;DHT22;40782;47.264;11.330;2023-02-01T11:39:20;4.40;99.90
29547;DHT22;40782;47.264;11.330;2023-02-01T11:42:03;4.40;99.90
29547;DHT22;40782;47.264;11.330;2023-02-01T11:44:34;4.30;99.90
29547;DHT22;40782;47.264;11.330;2023-02-01T11:47:25;4.30;99.90
29547;DHT22;40782;47.264;11.330;2023-02-01T11:49:54;4.20;99.90
29547;DHT22;40782;47.264;11.330;2023-02-01T11:52:37;4.20;99.90
29547;DHT22;40782;47.264;11.330;2023-02-01T11:55:17;4.20;99.90
29547;DHT22;40782;47.264;11.330;2023-02-01T11:57:55;4.40;99.90
29547;DHT22;40782;47.264;11.330;2023-02-01T12:00:39;4.40;99.90
29547;DHT22;40782;47.264;11.330;2023-02-01T12:06:18;4.40;99.90
29547;DHT22;40782;47.264;11.330;2023-02-01T12:09:11;4.30;99.90
29547;DHT22;40782;47.264;11.330;2023-02-01T12:11:45;4.70;99.90
29547;DHT22;40782;47.264;11.330;2023-02-01T12:14:27;4.60;99.90
29547;DHT22;40782;47.264;11.330;2023-02-01T12:17:12;4.60;99.90
29547;DHT22;40782;47.264;11.330;2023-02-01T12:19:58;5.60;99.90
29547;DHT22;40782;47.264;11.330;2023-02-01T12:22:36;6.80;99.90
29547;DHT22;40782;47.264;11.330;2023-02-01T12:25:23;6.80;99.90
29547;DHT22;40782;47.264;11.330;2023-02-01T12:28:17;7.20;99.90
29547;DHT22;40782;47.264;11.330;2023-02-01T12:30:58;7.60;99.90
29547;DHT22;40782;47.264;11.330;2023-02-01T12:33:39;7.80;99.90
29547;DHT22;40782;47.264;11.330;2023-02-01T12:36:16;8.00;99.90
29547;DHT22;40782;47.264;11.330;2023-02-01T12:38:51;8.20;99.90
29547;DHT22;40782;47.264;11.330;2023-02-01T12:41:34;8.30;99.90
29547;DHT22;40782;47.264;11.330;2023-02-01T12:44:05;8.50;99.90
29547;DHT22;40782;47.264;11.330;2023-02-01T12:46:39;8.70;99.90
29547;DHT22;40782;47.264;11.330;2023-02-01T12:49:11;8.80;99.90
29547;DHT22;40782;47.264;11.330;2023-02-01T12:51:44;8.90;99.90
29547;DHT22;40782;47.264;11.330;2023-02-01T12:54:18;9.00;99.90
29547;DHT22;40782;47.264;11.330;2023-02-01T12:56:51;9.10;99.90
29547;DHT22;40782;47.264;11.330;2023-02-01T12:59:24;9.20;99.90
29547;DHT22;40782;47.264;11.330;2023-02-01T13:01:56;9.30;99.90
29547;DHT22;40782;47.264;11.330;2023-02-01T13:04:33;9.40;99.90
29547;DHT22;40782;47.264;11.330;2023-02-01T13:07:07;9.40;99.90
29547;DHT22;40782;47.264;11.330;2023-02-01T13:09:50;9.30;99.90
29547;DHT22;40782;47.264;11.330;2023-02-01T13:12:23;9.30;99.90
29547;DHT22;40782;47.264;11.330;2023-02-01T13:14:55;9.30;99.90
29547;DHT22;40782;47.264;11.330;2023-02-01T13:17:26;9.30;99.90
29547;DHT22;40782;47.264;11.330;2023-02-01T13:19:58;9.20;99.90
29547;DHT22;40782;47.264;11.330;2023-02-01T13:22:30;9.20;99.90
29547;DHT22;40782;47.264;11.330;2023-02-01T13:25:00;9.20;99.90
29547;DHT22;40782;47.264;11.330;2023-02-01T13:27:31;9.20;99.90
29547;DHT22;40782;47.264;11.330;2023-02-01T13:30:01;9.20;99.90
29547;DHT22;40782;47.264;11.330;2023-02-01T13:35:51;9.10;99.90
29547;DHT22;40782;47.264;11.330;2023-02-01T13:41:27;9.10;99.90
29547;DHT22;40782;47.264;11.330;2023-02-01T13:44:04;9.10;99.90
29547;DHT22;40782;47.264;11.330;2023-02-01T13:46:40;9.10;99.90
29547;DHT22;40782;47.264;11.330;2023-02-01T13:49:18;9.10;99.90
29547;DHT22;40782;47.264;11.330;2023-02-01T13:51:50;9.10;99.90
29547;DHT22;40782;47.264;11.330;2023-02-01T13:54:32;9.00;99.90
29547;DHT22;40782;47.264;11.330;2023-02-01T13:57:01;9.00;99.90
29547;DHT22;40782;47.264;11.330;2023-02-01T13:59:53;9.00;99.90
29547;DHT22;40782;47.264;11.330;2023-02-01T14:03:10;9.00;99.90
29547;DHT22;40782;47.264;11.330;2023-02-01T14:06:02;9.00;99.90
29547;DHT22;40782;47.264;11.330;2023-02-01T14:08:42;9.00;99.90
29547;DHT22;40782;47.264;11.330;2023-02-01T14:11:34;8.90;99.90
29547;DHT22;40782;47.264;11.330;2023-02-01T14:23:29;8.90;99.90
29547;DHT22;40782;47.264;11.330;2023-02-01T14:26:19;8.90;99.90
29547;DHT22;40782;47.264;11.330;2023-02-01T14:29:00;8.90;99.90
29547;DHT22;40782;47.264;11.330;2023-02-01T14:31:48;8.90;99.90
29547;DHT22;40782;47.264;11.330;2023-02-01T14:34:20;9.00;99.90
29547;DHT22;40782;47.264;11.330;2023-02-01T14:36:52;9.00;99.90
29547;DHT22;40782;47.264;11.330;2023-02-01T14:39:27;9.00;99.90
29547;DHT22;40782;47.264;11.330;2023-02-01T14:41:58;9.00;99.90
29547;DHT22;40782;47.264;11.330;2023-02-01T14:44:28;9.00;99.90
29547;DHT22;40782;47.264;11.330;2023-02-01T14:47:27;8.90;99.90
29547;DHT22;40782;47.264;11.330;2023-02-01T14:49:58;8.90;99.90
29547;DHT22;40782;47.264;11.330;2023-02-01T14:52:32;8.80;99.90
29547;DHT22;40782;47.264;11.330;2023-02-01T14:55:05;8.80;99.90
29547;DHT22;40782;47.264;11.330;2023-02-01T14:57:36;8.80;99.90
29547;DHT22;40782;47.264;11.330;2023-02-01T15:00:14;8.80;99.90
29547;DHT22;40782;47.264;11.330;2023-02-01T15:02:43;8.80;99.90
29547;DHT22;40782;47.264;11.330;2023-02-01T15:05:28;8.80;99.90
29547;DHT22;40782;47.264;11.330;2023-02-01T15:08:06;8.80;99.90
29547;DHT22;40782;47.264;11.330;2023-02-01T15:10:46;8.70;99.90
29547;DHT22;40782;47.264;11.330;2023-02-01T15:13:22;8.70;99.90
29547;DHT22;40782;47.264;11.330;2023-02-01T15:16:04;8.70;99.90
29547;DHT22;40782;47.264;11.330;2023-02-01T15:18:32;8.60;99.90
29547;DHT22;40782;47.264;11.330;2023-02-01T15:21:01;8.60;99.90
29547;DHT22;40782;47.264;11.330;2023-02-01T15:23:29;8.50;99.90
29547;DHT22;40782;47.264;11.330;2023-02-01T15:25:58;8.60;99.90
29547;DHT22;40782;47.264;11.330;2023-02-01T15:28:26;8.50;99.90
29547;DHT22;40782;47.264;11.330;2023-02-01T15:30:58;8.50;99.90
29547;DHT22;40782;47.264;11.330;2023-02-01T15:33:26;8.40;99.90
29547;DHT22;40782;47.264;11.330;2023-02-01T15:35:55;8.40;99.90
29547;DHT22;40782;47.264;11.330;2023-02-01T15:38:34;8.30;99.90
29547;DHT22;40782;47.264;11.330;2023-02-01T15:41:06;8.30;99.90
29547;DHT22;40782;47.264;11.330;2023-02-01T15:43:37;8.30;99.90
29547;DHT22;40782;47.264;11.330;2023-02-01T15:46:09;8.20;99.90
29547;DHT22;40782;47.264;11.330;2023-02-01T15:48:40;8.20;99.90
29547;DHT22;40782;47.264;11.330;2023-02-01T15:51:17;8.20;99.90
29547;DHT22;40782;47.264;11.330;2023-02-01T15:53:51;8.20;99.90
29547;DHT22;40782;47.264;11.330;2023-02-01T15:56:32;8.10;99.90
29547;DHT22;40782;47.264;11.330;2023-02-01T15:59:02;8.10;99.90
29547;DHT22;40782;47.264;11.330;2023-02-01T16:01:29;8.10;99.90
29547;DHT22;40782;47.264;11.330;2023-02-01T16:04:15;8.10;99.90
29547;DHT22;40782;47.264;11.330;2023-02-01T16:06:49;8.00;99.90
29547;DHT22;40782;47.264;11.330;2023-02-01T16:09:18;8.00;99.90
29547;DHT22;40782;47.264;11.330;2023-02-01T16:11:54;8.00;99.90
29547;DHT22;40782;47.264;11.330;2023-02-01T16:14:22;7.90;99.90
29547;DHT22;40782;47.264;11.330;2023-02-01T16:16:50;7.80;99.90
29547;DHT22;40782;47.264;11.330;2023-02-01T16:19:17;7.90;99.90
29547;DHT22;40782;47.264;11.330;2023-02-01T16:21:45;7.80;99.90
29547;DHT22;40782;47.264;11.330;2023-02-01T16:24:12;7.80;99.90